Aviation Digital Data Service (ADDS)

Output produced by METARs form (2315 UTC 18 August 2019)
found at http://www.aviationweather.gov/metar/data/
 
Forecast for: PKMJ (MAJURO WSO AIRPO, MH, US)
Text: PKMJ 181725Z 1818/1918 26009KT P6SM VCSH SCT014 SCT050 BKN110
Forecast period: 1800 UTC 18 August 2019 to 1800 UTC 19 August 2019
Forecast type: FROM: standard forecast or significant change
Winds: from the W (260 degrees) at 10 MPH (9 knots; 4.6 m/s)
Visibility: 6 or more miles 10+ km)
Ceiling: 11000 feet AGL
Clouds: scattered clouds at 1400 feet AGL
scattered clouds at 5000 feet AGL
broken clouds at 11000 feet AGL
Weather: VCSH  (showers in vicinity)
Text: TEMPO 1818/1820 5SM TSRA SCT014CB BKN025
Forecast period: 1800 to 2000 UTC 18 August 2019
Forecast type: TEMPORARY: The following changes expected for less than half the time period
Visibility: 5 miles (8 km)
Ceiling: 2500 feet AGL
Clouds: scattered clouds at 1400 feet AGL
broken clouds at 2500 feet AGL
Weather: TSRA  (rain associated with thunderstorm(s))